createdAt,value
2023-02-09T10:06:47.207Z,24.44
2023-02-09T10:07:47.983Z,24.25
2023-02-09T10:08:47.991Z,24.04
2023-02-09T10:09:47.957Z,24.08
2023-02-09T10:10:48.176Z,24.10
2023-02-09T10:11:48.035Z,24.00
2023-02-09T10:12:48.168Z,24.21
2023-02-09T10:13:47.946Z,24.56
2023-02-09T10:14:47.918Z,24.36
2023-02-09T10:15:48.097Z,24.24
2023-02-09T10:16:48.108Z,24.22
2023-02-09T10:17:48.257Z,24.31
2023-02-09T10:18:47.884Z,24.28
2023-02-09T10:19:47.866Z,24.21
2023-02-09T10:20:47.881Z,24.27
2023-02-09T10:21:47.851Z,24.35
2023-02-09T10:22:48.219Z,24.41
2023-02-09T10:23:47.849Z,24.45
2023-02-09T10:24:47.822Z,24.49
2023-02-09T10:25:48.106Z,24.57
2023-02-09T10:26:47.805Z,24.58
2023-02-09T10:27:48.179Z,24.67
2023-02-09T10:28:47.793Z,24.72
2023-02-09T10:29:47.774Z,24.68
2023-02-09T10:30:47.938Z,24.67
2023-02-09T10:31:47.950Z,24.77
2023-02-09T10:32:48.176Z,24.97
2023-02-09T10:33:47.747Z,24.84
2023-02-09T10:34:47.753Z,25.14
2023-02-09T10:35:48.482Z,25.15
2023-02-09T10:36:48.695Z,25.18
2023-02-09T10:37:48.197Z,25.65
2023-02-09T10:38:47.761Z,25.49
2023-02-09T10:39:47.766Z,25.41
2023-02-09T10:40:47.702Z,25.37
2023-02-09T10:41:47.684Z,25.28
2023-02-09T10:42:47.682Z,25.16
2023-02-09T10:43:47.747Z,25.19
2023-02-09T10:44:47.649Z,25.15
2023-02-09T10:45:48.065Z,25.13
2023-02-09T10:46:48.196Z,25.04
2023-02-09T10:47:47.612Z,25.03
2023-02-09T10:48:47.610Z,25.05
2023-02-09T10:49:47.630Z,24.99
2023-02-09T10:50:47.634Z,24.97
2023-02-09T10:51:46.767Z,24.90
2023-02-09T10:52:47.579Z,24.97
2023-02-09T10:53:49.170Z,24.86
2023-02-09T10:54:47.708Z,24.85
2023-02-09T10:55:48.067Z,24.82
2023-02-09T10:56:48.191Z,24.81
2023-02-09T10:57:47.652Z,24.95
2023-02-09T10:58:48.191Z,24.83
2023-02-09T10:59:48.173Z,24.78
2023-02-09T11:00:47.639Z,24.72
2023-02-09T11:01:47.732Z,24.73
2023-02-09T11:02:47.633Z,24.69
2023-02-09T11:03:47.606Z,24.66
2023-02-09T11:04:47.734Z,24.63
2023-02-09T11:05:48.048Z,24.64
2023-02-09T11:06:47.723Z,24.62
2023-02-09T11:07:47.566Z,24.59
2023-02-09T11:08:47.555Z,24.59
2023-02-09T11:09:47.548Z,24.56
2023-02-09T11:10:47.558Z,24.55
2023-02-09T11:11:47.693Z,24.52
2023-02-09T11:12:47.530Z,24.50
2023-02-09T11:13:47.508Z,24.49
2023-02-09T11:14:47.590Z,24.48
2023-02-09T11:15:47.932Z,24.63
2023-02-09T11:16:47.732Z,24.60
2023-02-09T11:17:47.474Z,24.74
2023-02-09T11:18:47.695Z,24.75
2023-02-09T11:19:47.463Z,24.88
2023-02-09T11:20:47.449Z,25.02
2023-02-09T11:21:47.740Z,25.12
2023-02-09T11:22:47.716Z,25.25
2023-02-09T11:23:47.432Z,25.33
2023-02-09T11:24:47.420Z,25.45
2023-02-09T11:26:47.758Z,25.64
2023-02-09T11:27:47.731Z,25.70
2023-02-09T11:28:47.386Z,25.75
2023-02-09T11:30:47.816Z,25.91
2023-02-09T11:31:47.392Z,25.68
2023-02-09T11:32:47.340Z,25.89
2023-02-09T11:33:47.334Z,26.02
2023-02-09T11:34:47.327Z,26.11
2023-02-09T11:35:47.324Z,26.23
2023-02-09T11:36:47.306Z,26.35
2023-02-09T11:37:47.725Z,26.43
2023-02-09T11:38:47.301Z,26.56
2023-02-09T11:39:47.283Z,26.71
2023-02-09T11:40:47.626Z,26.80
2023-02-09T11:41:47.259Z,26.89
2023-02-09T11:42:47.277Z,27.18
2023-02-09T11:43:47.237Z,27.26
2023-02-09T11:44:47.707Z,27.16
2023-02-09T11:45:47.230Z,27.29
2023-02-09T11:46:47.310Z,27.49
2023-02-09T11:47:47.234Z,27.56
2023-02-09T11:48:47.200Z,27.54
2023-02-09T11:49:47.184Z,27.67
2023-02-09T11:50:47.539Z,27.76
2023-02-09T11:51:47.168Z,27.78
2023-02-09T11:52:47.229Z,27.87
2023-02-09T11:53:47.152Z,27.97
2023-02-09T11:54:47.148Z,28.05
2023-02-09T11:55:47.132Z,28.13
2023-02-09T11:56:47.118Z,28.17
2023-02-09T11:57:47.215Z,28.40
2023-02-09T11:58:47.202Z,23.54
2023-02-09T11:59:47.102Z,21.98
2023-02-09T12:00:56.034Z,20.91
2023-02-09T12:01:47.118Z,18.76
2023-02-09T12:02:47.219Z,19.21
2023-02-09T12:03:47.058Z,18.36
2023-02-09T12:04:47.074Z,18.43
2023-02-09T12:05:47.040Z,19.64
2023-02-09T12:06:47.076Z,19.83
2023-02-09T12:07:47.209Z,19.67
2023-02-09T12:08:47.014Z,19.14
2023-02-09T12:09:47.000Z,18.01
2023-02-09T12:10:47.321Z,17.58
2023-02-09T12:11:46.988Z,16.11
2023-02-09T12:12:47.214Z,15.39
2023-02-09T12:13:47.872Z,15.09
2023-02-09T12:14:47.236Z,15.04
2023-02-09T12:15:47.072Z,15.82
2023-02-09T12:16:46.931Z,16.82
2023-02-09T12:17:47.719Z,17.37
2023-02-09T12:18:46.930Z,17.63
2023-02-09T12:19:48.452Z,17.19
2023-02-09T12:20:50.095Z,17.64
2023-02-09T12:21:46.890Z,17.84
2023-02-09T12:22:46.911Z,18.03
2023-02-09T12:23:46.869Z,18.36
2023-02-09T12:24:47.216Z,18.05
2023-02-09T12:25:46.853Z,18.25
2023-02-09T12:26:46.845Z,17.97
2023-02-09T12:27:46.835Z,17.33
2023-02-09T12:28:46.892Z,17.96
2023-02-09T12:29:46.815Z,17.27
2023-02-09T12:30:47.205Z,16.63
2023-02-09T12:31:46.868Z,17.20
2023-02-09T12:32:47.217Z,18.26
2023-02-09T12:33:46.770Z,18.60
2023-02-09T12:34:47.223Z,18.90
2023-02-09T12:35:46.759Z,18.06
2023-02-09T12:36:47.235Z,17.49
2023-02-09T12:37:46.736Z,17.86
2023-02-09T12:38:52.307Z,17.31
2023-02-09T12:39:46.720Z,17.73
2023-02-09T12:40:47.021Z,17.64
2023-02-09T12:41:46.715Z,18.07
2023-02-09T12:42:46.746Z,18.39
2023-02-09T12:43:46.694Z,18.68
2023-02-09T12:44:46.715Z,18.46
2023-02-09T12:45:47.036Z,19.10
2023-02-09T12:46:46.765Z,17.10
2023-02-09T12:47:46.649Z,17.89
2023-02-09T12:48:46.628Z,18.02
2023-02-09T12:49:46.750Z,17.04
2023-02-09T12:50:46.618Z,16.96
2023-02-09T12:51:46.678Z,17.66
2023-02-09T12:52:46.597Z,17.93
2023-02-09T12:53:46.595Z,18.88
2023-02-09T12:54:46.585Z,18.05
2023-02-09T12:55:46.991Z,17.77
2023-02-09T12:56:46.576Z,17.62
2023-02-09T12:57:47.573Z,17.89
2023-02-09T12:58:46.794Z,17.92
2023-02-09T12:59:46.534Z,17.92
2023-02-09T13:00:46.543Z,17.88
2023-02-09T13:01:46.510Z,17.71
2023-02-09T13:02:46.524Z,18.50
2023-02-09T13:03:46.795Z,17.50
2023-02-09T13:04:46.504Z,17.74
2023-02-09T13:05:46.825Z,18.31
2023-02-09T13:06:46.469Z,18.43
2023-02-09T13:07:46.465Z,18.62
2023-02-09T13:08:46.723Z,20.43
2023-02-09T13:09:46.725Z,21.34
2023-02-09T13:10:46.438Z,21.88
2023-02-09T13:11:46.428Z,21.57
2023-02-09T13:12:46.756Z,21.92
2023-02-09T13:13:46.406Z,18.41
2023-02-09T13:14:46.401Z,18.16
2023-02-09T13:15:46.658Z,16.64
2023-02-09T13:16:46.554Z,17.63
2023-02-09T13:17:46.382Z,17.44
2023-02-09T13:18:46.755Z,17.74
2023-02-09T13:19:48.166Z,17.23
2023-02-09T13:20:46.350Z,17.94
2023-02-09T13:21:46.346Z,17.79
2023-02-09T13:22:46.334Z,17.42
2023-02-09T13:23:46.730Z,17.23
2023-02-09T13:24:46.310Z,16.71
2023-02-09T13:25:46.629Z,16.91
2023-02-09T13:26:46.290Z,18.37
2023-02-09T13:27:46.276Z,17.33
2023-02-09T13:28:46.732Z,18.30
2023-02-09T13:29:46.280Z,18.93
2023-02-09T13:30:46.285Z,17.76
2023-02-09T13:31:46.331Z,18.48
2023-02-09T13:32:46.294Z,18.06
2023-02-09T13:33:46.321Z,17.67
2023-02-09T13:34:46.267Z,18.27
2023-02-09T13:35:46.497Z,18.59
2023-02-09T13:36:46.244Z,17.96
2023-02-09T13:37:46.195Z,18.14
2023-02-09T13:38:46.206Z,17.32
2023-02-09T13:39:46.175Z,17.95
2023-02-09T13:40:46.164Z,18.14
2023-02-09T13:41:46.183Z,18.26
2023-02-09T13:42:46.136Z,18.35
2023-02-09T13:43:46.239Z,17.74
2023-02-09T13:44:46.158Z,17.91
2023-02-09T13:45:46.558Z,18.33
2023-02-09T13:46:46.111Z,18.04
2023-02-09T13:47:46.104Z,18.62
2023-02-09T13:48:46.286Z,18.47
2023-02-09T13:49:46.082Z,17.80
2023-02-09T13:50:46.104Z,18.02
2023-02-09T13:51:46.101Z,18.11
2023-02-09T13:52:46.077Z,18.39
2023-02-09T13:53:46.291Z,18.33
2023-02-09T13:54:46.027Z,18.28
2023-02-09T13:55:46.574Z,17.85
2023-02-09T13:56:46.009Z,18.12
2023-02-09T13:57:46.052Z,17.94
2023-02-09T13:58:45.987Z,18.11
2023-02-09T13:59:46.252Z,17.91
2023-02-09T14:00:45.969Z,18.12
2023-02-09T14:01:45.960Z,17.70
2023-02-09T14:02:46.033Z,17.90
2023-02-09T14:03:57.376Z,17.98
2023-02-09T14:04:46.246Z,18.01
2023-02-09T14:05:46.269Z,17.89
2023-02-09T14:06:46.308Z,17.62
2023-02-09T14:07:46.321Z,17.55
2023-02-09T14:08:45.899Z,17.78
2023-02-09T14:09:45.895Z,17.63
2023-02-09T14:10:45.871Z,17.56
2023-02-09T14:11:45.865Z,17.53
2023-02-09T14:12:46.339Z,17.90
2023-02-09T14:13:45.849Z,17.69
2023-02-09T14:14:45.838Z,17.85
2023-02-09T14:15:46.143Z,17.69
2023-02-09T14:16:53.377Z,17.73
2023-02-09T14:17:46.280Z,17.81
2023-02-09T14:18:45.824Z,18.18
2023-02-09T14:19:45.841Z,18.92
2023-02-09T14:20:45.773Z,19.79
2023-02-09T14:21:45.769Z,20.09
2023-02-09T14:22:46.267Z,20.31
2023-02-09T14:23:45.752Z,20.52
2023-02-09T14:24:45.756Z,20.65
2023-02-09T14:25:46.169Z,20.70
2023-02-09T14:26:45.725Z,21.00
2023-02-09T14:27:45.719Z,21.06
2023-02-09T14:28:45.724Z,21.05
2023-02-09T14:29:45.708Z,21.33
2023-02-09T14:30:45.738Z,21.49
2023-02-09T14:31:45.672Z,21.52
2023-02-09T14:32:45.687Z,21.71
2023-02-09T14:33:45.659Z,21.89
2023-02-09T14:34:45.758Z,22.04
2023-02-09T14:35:45.893Z,22.06
2023-02-09T14:36:45.627Z,22.09
2023-02-09T14:37:45.616Z,22.26
2023-02-09T14:38:45.627Z,22.44
2023-02-09T14:39:45.608Z,22.60
2023-02-09T14:40:45.604Z,22.70
2023-02-09T14:41:45.585Z,22.72
2023-02-09T14:42:45.576Z,22.87
2023-02-09T14:43:45.594Z,22.95
2023-02-09T14:44:45.764Z,23.08
2023-02-09T14:45:45.913Z,23.20
2023-02-09T14:46:45.541Z,23.27
2023-02-09T14:47:45.530Z,23.35
2023-02-09T14:48:45.518Z,23.46
2023-02-09T14:49:45.756Z,23.57
2023-02-09T14:50:45.516Z,23.66
2023-02-09T14:51:45.499Z,23.82
2023-02-09T14:52:47.067Z,23.87
2023-02-09T14:53:45.716Z,23.94
2023-02-09T14:54:45.721Z,24.01
2023-02-09T14:55:46.155Z,24.09
2023-02-09T14:56:45.683Z,24.24
2023-02-09T14:57:45.672Z,24.30
2023-02-09T14:58:45.672Z,24.33
2023-02-09T14:59:45.675Z,24.35
2023-02-09T15:00:45.771Z,24.46
2023-02-09T15:01:45.713Z,24.57
2023-02-09T15:02:45.722Z,24.63
2023-02-09T15:03:45.635Z,24.65
2023-02-09T15:04:45.608Z,24.77
2023-02-09T15:05:46.090Z,24.92
2023-02-09T15:06:45.600Z,25.03
2023-02-09T15:07:45.586Z,25.07
2023-02-09T15:08:45.601Z,25.16
2023-02-09T15:09:46.270Z,25.25
2023-02-09T15:10:45.597Z,25.38
2023-02-09T15:11:45.562Z,25.44
2023-02-09T15:12:45.541Z,25.49
2023-02-09T15:13:45.772Z,25.51
2023-02-09T15:14:45.550Z,25.61
2023-02-09T15:15:45.894Z,25.73
2023-02-09T15:16:45.497Z,25.82
2023-02-09T15:17:45.497Z,25.89
2023-02-09T15:18:45.777Z,26.01
2023-02-09T15:19:45.473Z,26.00
2023-02-09T15:20:45.783Z,26.07
2023-02-09T15:21:50.678Z,26.09
2023-02-09T15:22:45.463Z,26.30
2023-02-09T15:23:45.441Z,26.32
2023-02-09T15:24:45.435Z,26.44
2023-02-09T15:25:46.168Z,26.41
2023-02-09T15:26:45.431Z,26.51
2023-02-09T15:27:51.247Z,26.48
2023-02-09T15:28:45.387Z,26.56
2023-02-09T15:29:45.394Z,26.71
2023-02-09T15:30:46.251Z,26.88
2023-02-09T15:31:45.421Z,27.28
2023-02-09T15:32:45.352Z,27.00
2023-02-09T15:33:45.349Z,24.81
2023-02-09T15:34:46.266Z,25.45
2023-02-09T15:35:46.105Z,25.95
2023-02-09T15:36:45.321Z,25.64
2023-02-09T15:37:45.319Z,19.58
2023-02-09T15:38:45.319Z,18.36
2023-02-09T15:39:45.303Z,17.50
2023-02-09T15:40:45.922Z,18.60
2023-02-09T15:41:45.273Z,20.57
2023-02-09T15:42:45.327Z,22.02
2023-02-09T15:43:45.261Z,22.28
2023-02-09T15:44:45.278Z,22.67
2023-02-09T15:45:45.249Z,23.04
2023-02-09T15:46:45.288Z,23.35
2023-02-09T15:47:45.230Z,23.40
2023-02-09T15:48:45.199Z,23.49
2023-02-09T15:49:45.192Z,23.62
2023-02-09T15:50:45.476Z,23.85
2023-02-09T15:51:45.170Z,23.93
2023-02-09T15:52:45.164Z,23.90
2023-02-09T15:53:45.151Z,23.89
2023-02-09T15:54:45.172Z,23.87
2023-02-09T15:55:45.132Z,23.85
2023-02-09T15:56:45.130Z,23.82
2023-02-09T15:57:45.124Z,23.78
2023-02-09T15:58:45.139Z,23.72
2023-02-09T15:59:45.105Z,23.68
2023-02-09T16:00:45.574Z,23.65
2023-02-09T16:01:45.125Z,23.61
2023-02-09T16:02:45.165Z,23.58
2023-02-09T16:03:45.070Z,23.55
2023-02-09T16:04:45.061Z,23.49
2023-02-09T16:05:45.048Z,23.46
2023-02-09T16:06:45.279Z,23.42
2023-02-09T16:07:45.029Z,23.40
2023-02-09T16:08:45.019Z,23.39
2023-02-09T16:09:45.053Z,23.34
2023-02-09T16:10:45.393Z,23.31
2023-02-09T16:11:45.070Z,23.31
2023-02-09T16:12:45.136Z,23.25
2023-02-09T16:13:44.999Z,23.23
2023-02-09T16:14:45.007Z,23.23
2023-02-09T16:15:44.976Z,23.17
2023-02-09T16:16:45.003Z,23.18
2023-02-09T16:17:44.940Z,23.11
2023-02-09T16:18:45.102Z,23.10
2023-02-09T16:19:44.928Z,23.10
2023-02-09T16:20:45.244Z,23.09
2023-02-09T16:21:44.905Z,23.08
2023-02-09T16:22:44.894Z,23.02
2023-02-09T16:23:44.894Z,23.00
2023-02-09T16:24:44.877Z,22.99
2023-02-09T16:25:45.281Z,22.98
2023-02-09T16:26:44.857Z,22.97
2023-02-09T16:27:44.850Z,22.94
2023-02-09T16:28:44.851Z,22.94
2023-02-09T16:29:44.839Z,22.91
2023-02-09T16:30:45.622Z,22.89
2023-02-09T16:31:44.869Z,22.86
2023-02-09T16:32:45.786Z,22.86
2023-02-09T16:33:44.800Z,22.84
2023-02-09T16:34:44.788Z,22.82
2023-02-09T16:35:45.180Z,22.82
2023-02-09T16:36:46.374Z,22.76
2023-02-09T16:37:44.788Z,22.77
2023-02-09T16:38:44.750Z,22.75
2023-02-09T16:39:44.747Z,22.73
2023-02-09T16:40:44.739Z,22.70
2023-02-09T16:41:44.734Z,22.67
2023-02-09T16:42:45.946Z,22.67
2023-02-09T16:43:44.710Z,22.65
2023-02-09T16:44:44.696Z,22.62
2023-02-09T16:45:54.125Z,22.61
2023-02-09T16:46:44.836Z,22.60
2023-02-09T16:47:44.677Z,22.57
2023-02-09T16:48:44.666Z,22.56
2023-02-09T16:49:44.656Z,22.52
2023-02-09T16:50:44.961Z,22.51
2023-02-09T16:51:44.636Z,22.49
2023-02-09T16:52:44.639Z,22.46
2023-02-09T16:53:44.621Z,22.48
2023-02-09T16:54:44.652Z,22.44
2023-02-09T16:55:46.640Z,22.42
2023-02-09T16:56:54.187Z,22.40
2023-02-09T16:57:44.594Z,22.44
2023-02-09T16:58:44.574Z,22.38
2023-02-09T16:59:44.565Z,22.37
2023-02-09T17:00:44.592Z,22.36
2023-02-09T17:01:46.008Z,22.32
2023-02-09T17:02:44.582Z,22.31
2023-02-09T17:03:44.537Z,22.30
2023-02-09T17:04:44.523Z,22.29
2023-02-09T17:05:44.889Z,22.27
2023-02-09T17:06:44.502Z,22.24
2023-02-09T17:07:53.910Z,22.24
2023-02-09T17:08:44.490Z,22.26
2023-02-09T17:09:44.482Z,22.21
2023-02-09T17:10:44.471Z,22.21
2023-02-09T17:11:44.459Z,22.18
2023-02-09T17:12:44.457Z,22.16
2023-02-09T17:13:44.450Z,22.15
2023-02-09T17:14:44.452Z,22.13
2023-02-09T17:15:44.494Z,22.11
2023-02-09T17:16:44.497Z,22.10
2023-02-09T17:17:44.416Z,22.09
2023-02-09T17:18:44.423Z,22.10
2023-02-09T17:19:47.863Z,22.09
2023-02-09T17:20:44.374Z,22.09
2023-02-09T17:21:44.365Z,22.05
2023-02-09T17:22:44.370Z,22.04
2023-02-09T17:23:44.353Z,22.05
2023-02-09T17:24:44.342Z,22.04
2023-02-09T17:25:45.778Z,22.02
2023-02-09T17:26:44.390Z,21.98
2023-02-09T17:27:44.386Z,21.98
2023-02-09T17:28:44.369Z,21.97
2023-02-09T17:29:44.364Z,21.97
2023-02-09T17:30:44.352Z,21.94
2023-02-09T17:31:53.302Z,21.93
2023-02-09T17:32:44.336Z,21.93
2023-02-09T17:33:44.328Z,21.92
2023-02-09T17:34:44.349Z,21.90
2023-02-09T17:36:17.659Z,21.90
2023-02-09T17:36:44.297Z,21.90
2023-02-09T17:37:44.289Z,21.88
2023-02-09T17:38:44.299Z,21.85
2023-02-09T17:39:44.291Z,21.86
2023-02-09T17:40:44.268Z,21.81
2023-02-09T17:41:44.252Z,21.83
2023-02-09T17:42:44.245Z,21.81
2023-02-09T17:43:44.235Z,21.80
2023-02-09T17:44:46.703Z,21.79
2023-02-09T17:45:44.391Z,21.80
2023-02-09T17:46:44.205Z,21.77
2023-02-09T17:47:44.198Z,21.78
2023-02-09T17:48:44.191Z,21.75
2023-02-09T17:49:44.182Z,21.74
2023-02-09T17:50:44.194Z,21.73
2023-02-09T17:51:44.161Z,21.72
2023-02-09T17:52:44.172Z,21.71
2023-02-09T17:53:44.172Z,21.70
2023-02-09T17:54:44.139Z,21.67
2023-02-09T17:55:44.346Z,21.68
2023-02-09T17:56:44.125Z,21.63
2023-02-09T17:57:44.109Z,21.63
2023-02-09T17:58:44.101Z,21.65
2023-02-09T17:59:44.088Z,21.64
2023-02-09T18:00:44.082Z,21.62
2023-02-09T18:01:44.195Z,21.62
2023-02-09T18:02:44.104Z,21.62
2023-02-09T18:03:44.061Z,21.61
2023-02-09T18:04:44.071Z,21.57
2023-02-09T18:05:44.322Z,21.58
2023-02-09T18:06:44.057Z,21.61
2023-02-09T18:07:44.015Z,21.57
2023-02-09T18:11:43.987Z,21.50
2023-02-09T18:12:43.979Z,21.49
2023-02-09T18:14:43.959Z,21.46
2023-02-09T18:23:43.888Z,21.38
2023-02-09T18:24:43.865Z,21.40
2023-02-09T18:25:43.918Z,21.37
2023-02-09T18:33:44.954Z,21.26
2023-02-09T18:35:43.868Z,21.29
2023-02-09T18:37:45.636Z,21.27
2023-02-09T18:40:43.716Z,21.23
2023-02-09T18:48:43.656Z,21.21
2023-02-09T18:50:43.624Z,21.21
2023-02-09T18:56:43.565Z,21.13
2023-02-09T19:03:43.510Z,21.12
2023-02-09T19:06:43.484Z,21.05
2023-02-09T19:08:43.468Z,21.07
2023-02-09T19:13:43.416Z,21.05
2023-02-09T19:14:43.411Z,21.00
2023-02-09T19:19:43.385Z,20.93
2023-02-09T19:20:43.353Z,20.94
2023-02-09T19:21:43.349Z,20.96
2023-02-09T19:25:43.308Z,20.97
2023-02-09T19:31:43.254Z,20.92
2023-02-09T19:35:43.220Z,20.79
2023-02-09T19:50:43.092Z,20.79
2023-02-09T19:57:43.023Z,20.75
2023-02-09T20:00:43.006Z,20.75
2023-02-09T20:04:42.957Z,20.73
2023-02-09T20:05:42.973Z,20.70
2023-02-09T20:28:42.735Z,20.63
2023-02-09T20:29:42.727Z,20.64
2023-02-09T20:30:42.748Z,20.62
2023-02-09T20:31:42.727Z,20.60
2023-02-09T20:32:42.704Z,20.54
2023-02-09T20:33:42.689Z,20.62
2023-02-09T20:34:42.690Z,20.61
